Time;durP1;ratioP1;P1;durP2;ratioP2;P2;SDS_P1;SDS_P2;PMS_P1;PMS_P2;Temp;Humidity;BMP_temperature;BMP_pressure;BME280_temperature;BME280_humidity;BME280_pressure;Samples;Min_cycle;Max_cycle;Signal;HPM_P1;HPM_P2
2022/05/16 00:00:28;;;;;;;3.30;2.50;;;18.80;99.90;;;;;;5097736;28;21034;-73
2022/05/16 00:02:56;;;;;;;4.83;2.77;;;18.80;99.90;;;;;;5078943;28;20614;-73
2022/05/16 00:05:23;;;;;;;8.80;3.53;;;18.80;99.90;;;;;;5097540;28;20690;-74
2022/05/16 00:07:49;;;;;;;2.77;2.57;;;18.60;99.90;;;;;;5097020;28;20672;-73
2022/05/16 00:10:23;;;;;;;5.60;2.67;;;18.40;99.90;;;;;;5081656;28;20700;-73
2022/05/16 00:13:11;;;;;;;4.93;2.73;;;18.50;99.90;;;;;;5099969;28;20625;-73
2022/05/16 00:15:37;;;;;;;3.37;2.73;;;18.40;99.90;;;;;;5096364;28;20972;-74
2022/05/16 00:18:05;;;;;;;5.50;3.00;;;18.30;99.90;;;;;;5096931;28;20605;-73
2022/05/16 00:20:31;;;;;;;3.17;2.73;;;18.10;99.90;;;;;;5097409;28;20661;-73
2022/05/16 00:22:58;;;;;;;4.70;2.47;;;18.30;99.90;;;;;;5098039;28;20711;-74
2022/05/16 00:25:24;;;;;;;4.63;2.93;;;18.40;99.90;;;;;;5097845;28;20616;-74
2022/05/16 00:27:51;;;;;;;5.77;2.67;;;18.50;99.90;;;;;;5097807;28;20601;-73
2022/05/16 00:30:19;;;;;;;7.63;3.20;;;18.40;99.90;;;;;;5096383;28;20692;-73
2022/05/16 00:32:50;;;;;;;6.00;3.07;;;18.40;99.90;;;;;;5079222;28;20618;-74
2022/05/16 00:35:19;;;;;;;4.17;3.00;;;18.20;99.90;;;;;;5098305;28;20593;-74
2022/05/16 00:37:46;;;;;;;5.00;2.53;;;18.20;99.90;;;;;;5096050;28;20625;-73
2022/05/16 00:40:13;;;;;;;4.60;3.00;;;18.10;99.90;;;;;;5096625;28;20714;-74
2022/05/16 00:42:41;;;;;;;7.97;2.87;;;17.90;99.90;;;;;;5096522;28;20602;-73
2022/05/16 00:45:09;;;;;;;4.10;3.03;;;17.60;99.90;;;;;;5095076;28;20613;-71
2022/05/16 00:47:35;;;;;;;3.10;2.90;;;17.70;99.90;;;;;;5094687;28;20624;-71
2022/05/16 00:50:05;;;;;;;4.00;3.60;;;17.70;99.90;;;;;;5076680;28;21021;-71
2022/05/16 00:52:36;;;;;;;12.10;4.40;;;17.90;99.90;;;;;;5076276;28;20631;-71
2022/05/16 00:55:13;;;;;;;6.50;3.53;;;18.00;99.90;;;;;;5076959;28;20600;-71
2022/05/16 00:57:46;;;;;;;4.03;2.97;;;18.00;99.90;;;;;;5094593;28;20573;-72
2022/05/16 01:00:21;;;;;;;9.17;3.10;;;18.00;99.90;;;;;;5094841;28;20642;-72
2022/05/16 01:05:41;;;;;;;3.00;2.80;;;17.80;99.90;;;;;;5094519;28;20645;-73
2022/05/16 01:08:12;;;;;;;3.43;3.13;;;17.50;99.90;;;;;;5096415;28;20649;-76
2022/05/16 01:10:39;;;;;;;3.10;2.90;;;17.40;99.90;;;;;;5095442;28;20613;-73
2022/05/16 01:13:07;;;;;;;3.30;3.00;;;17.40;99.90;;;;;;5095343;28;21159;-73
2022/05/16 01:15:42;;;;;;;4.43;3.07;;;17.40;99.90;;;;;;5094341;28;20632;-73
2022/05/16 01:18:10;;;;;;;4.50;2.67;;;17.50;99.90;;;;;;5094195;28;20624;-73
2022/05/16 01:20:43;;;;;;;4.47;3.70;;;17.60;99.90;;;;;;5094253;28;20653;-73
2022/05/16 01:23:14;;;;;;;3.30;2.80;;;17.60;99.90;;;;;;5094096;28;20978;-73
2022/05/16 01:25:40;;;;;;;6.30;3.80;;;17.70;99.90;;;;;;5094285;28;21132;-73
2022/05/16 01:28:07;;;;;;;9.10;5.37;;;17.60;99.90;;;;;;5094310;28;20605;-73
2022/05/16 01:30:46;;;;;;;5.50;4.30;;;17.60;99.90;;;;;;5094310;28;21180;-73
2022/05/16 01:33:15;;;;;;;6.77;3.77;;;17.60;99.90;;;;;;5095704;28;20578;-73
2022/05/16 01:35:42;;;;;;;4.60;3.37;;;17.50;99.90;;;;;;5095876;28;20591;-73
2022/05/16 01:38:26;;;;;;;6.73;3.60;;;17.50;99.90;;;;;;5096072;28;20667;-73
2022/05/16 01:40:55;;;;;;;4.90;3.93;;;17.40;99.90;;;;;;5095167;28;21203;-73
2022/05/16 01:43:28;;;;;;;3.50;3.10;;;17.30;99.90;;;;;;5094329;28;20632;-73
2022/05/16 01:45:55;;;;;;;3.63;3.23;;;17.30;99.90;;;;;;5094865;28;20585;-73
2022/05/16 01:48:22;;;;;;;3.73;2.93;;;17.00;99.90;;;;;;5094390;28;20613;-73
2022/05/16 01:50:50;;;;;;;3.73;3.40;;;16.90;99.90;;;;;;5094726;28;20620;-73
2022/05/16 01:53:18;;;;;;;4.60;3.17;;;16.90;99.90;;;;;;5075914;28;21176;-73
2022/05/16 01:55:44;;;;;;;3.30;2.93;;;16.90;99.90;;;;;;5093511;28;21172;-73
2022/05/16 01:58:11;;;;;;;4.27;3.20;;;17.00;99.90;;;;;;5093920;28;20606;-73
2022/05/16 02:00:38;;;;;;;5.10;3.40;;;17.00;99.90;;;;;;5093596;28;20649;-73
2022/05/16 02:03:08;;;;;;;4.50;3.67;;;16.80;99.90;;;;;;5093534;28;21212;-73
2022/05/16 02:05:35;;;;;;;4.47;3.47;;;16.80;99.90;;;;;;5093897;28;20629;-73
2022/05/16 02:08:02;;;;;;;5.63;3.10;;;16.60;99.90;;;;;;5092895;28;20653;-73
2022/05/16 02:10:29;;;;;;;4.03;3.80;;;16.10;99.90;;;;;;5093982;28;20606;-73
2022/05/16 02:12:57;;;;;;;5.70;3.63;;;15.70;99.90;;;;;;5093574;28;20621;-73
2022/05/16 02:15:26;;;;;;;7.30;3.60;;;15.40;99.90;;;;;;5075375;28;20617;-73
2022/05/16 02:17:53;;;;;;;8.30;4.07;;;15.30;99.90;;;;;;5093848;28;20628;-73
2022/05/16 02:20:20;;;;;;;3.67;3.47;;;15.20;99.90;;;;;;5094789;28;20657;-73
2022/05/16 02:25:43;;;;;;;4.77;4.30;;;15.30;99.90;;;;;;5094777;28;20589;-73
2022/05/16 02:28:16;;;;;;;6.53;4.40;;;15.30;99.90;;;;;;5092199;28;20602;-73
2022/05/16 02:30:43;;;;;;;4.40;4.00;;;15.30;99.90;;;;;;5094530;28;20629;-73
2022/05/16 02:33:12;;;;;;;4.73;4.27;;;15.30;99.90;;;;;;5094770;28;20616;-73
2022/05/16 02:35:39;;;;;;;5.07;4.33;;;15.30;99.90;;;;;;5094515;28;20588;-73
2022/05/16 02:38:07;;;;;;;5.90;4.20;;;15.30;99.90;;;;;;5094260;28;20609;-73
2022/05/16 02:40:35;;;;;;;5.60;4.80;;;15.40;99.90;;;;;;5094074;28;20661;-73
2022/05/16 02:43:03;;;;;;;8.00;4.87;;;15.40;99.90;;;;;;5093613;28;20606;-73
2022/05/16 02:45:31;;;;;;;4.73;4.30;;;15.50;99.90;;;;;;5093093;28;21175;-73
2022/05/16 02:47:58;;;;;;;4.80;4.30;;;15.60;99.90;;;;;;5093337;28;20601;-73
2022/05/16 02:50:25;;;;;;;7.67;4.37;;;15.80;99.90;;;;;;5093543;28;21174;-73
2022/05/16 02:52:53;;;;;;;4.07;3.77;;;16.00;99.90;;;;;;5093748;28;20609;-73
2022/05/16 02:55:21;;;;;;;4.07;3.57;;;16.10;99.90;;;;;;5097481;28;20616;-73
2022/05/16 02:57:48;;;;;;;3.93;3.63;;;16.00;99.90;;;;;;5097380;28;20621;-73
2022/05/16 03:00:16;;;;;;;14.10;4.20;;;16.00;99.90;;;;;;5097330;28;21211;-73
2022/05/16 03:02:43;;;;;;;8.37;4.00;;;16.00;99.90;;;;;;5097046;28;20682;-73
2022/05/16 03:05:11;;;;;;;4.60;4.20;;;15.80;99.90;;;;;;5097790;28;20959;-74
2022/05/16 03:07:37;;;;;;;3.90;3.60;;;15.80;99.90;;;;;;5096739;28;20668;-74
2022/05/16 03:10:05;;;;;;;5.33;4.10;;;15.70;99.90;;;;;;5097017;28;21187;-73
2022/05/16 03:12:31;;;;;;;4.13;3.87;;;15.60;99.90;;;;;;5097278;28;20612;-72
2022/05/16 03:14:58;;;;;;;4.77;4.20;;;15.60;99.90;;;;;;5078962;28;20992;-72
2022/05/16 03:17:25;;;;;;;5.13;4.03;;;15.40;99.90;;;;;;5096844;28;20973;-72
2022/05/16 03:19:51;;;;;;;6.37;4.30;;;15.20;99.90;;;;;;5061463;28;20995;-72
2022/05/16 03:22:17;;;;;;;4.50;3.93;;;15.20;99.90;;;;;;5097686;28;20617;-72
2022/05/16 03:24:44;;;;;;;8.90;4.57;;;15.10;99.90;;;;;;5079932;28;20609;-71
2022/05/16 03:27:11;;;;;;;4.70;4.23;;;14.90;99.90;;;;;;5097299;28;20605;-71
2022/05/16 03:29:38;;;;;;;5.27;4.77;;;14.90;99.90;;;;;;5097376;28;21058;-72
2022/05/16 03:32:06;;;;;;;7.23;4.57;;;14.90;99.90;;;;;;5097969;28;20605;-72
2022/05/16 03:34:33;;;;;;;6.57;4.50;;;15.00;99.90;;;;;;5097028;28;20591;-72
2022/05/16 03:36:59;;;;;;;5.43;4.93;;;15.10;99.90;;;;;;5097360;28;20613;-73
2022/05/16 03:42:11;;;;;;;4.40;4.00;;;15.30;99.90;;;;;;5096757;28;20577;-74
2022/05/16 03:44:37;;;;;;;4.00;3.70;;;15.40;99.90;;;;;;5097107;28;20616;-73
2022/05/16 03:47:03;;;;;;;4.97;4.30;;;15.50;99.90;;;;;;5079019;28;20591;-73
2022/05/16 03:49:30;;;;;;;6.53;3.90;;;15.50;99.90;;;;;;5096886;28;20591;-73
2022/05/16 03:51:59;;;;;;;4.80;4.40;;;15.40;99.90;;;;;;5096619;28;20595;-74
2022/05/16 03:54:25;;;;;;;5.60;4.13;;;15.50;99.90;;;;;;5095127;28;20600;-73
2022/05/16 03:56:52;;;;;;;5.00;4.47;;;15.60;99.90;;;;;;5096844;28;20620;-73
2022/05/16 03:59:18;;;;;;;8.50;4.30;;;15.70;99.90;;;;;;5095977;28;20932;-73
2022/05/16 04:01:45;;;;;;;4.27;3.87;;;15.70;99.90;;;;;;5096189;28;20612;-73
2022/05/16 04:04:12;;;;;;;5.70;3.60;;;15.80;99.90;;;;;;5095044;28;20625;-73
2022/05/16 04:06:38;;;;;;;13.27;4.63;;;15.80;99.90;;;;;;5095602;28;20652;-71
2022/05/16 04:09:05;;;;;;;5.10;3.97;;;15.90;99.90;;;;;;5077121;28;20692;-71
2022/05/16 04:11:34;;;;;;;4.40;3.70;;;16.00;99.90;;;;;;5095534;28;20613;-72
2022/05/16 04:14:01;;;;;;;6.27;4.17;;;16.10;99.90;;;;;;5095609;28;20607;-72
2022/05/16 04:16:27;;;;;;;4.10;3.80;;;16.20;99.90;;;;;;5096487;28;20605;-71
2022/05/16 04:18:54;;;;;;;4.37;4.00;;;16.20;99.90;;;;;;5095639;28;20583;-72
2022/05/16 04:21:20;;;;;;;4.67;3.83;;;16.00;99.90;;;;;;5095868;28;20675;-71
2022/05/16 04:23:47;;;;;;;4.03;3.73;;;16.10;99.90;;;;;;5095624;28;20610;-71
2022/05/16 04:26:13;;;;;;;4.63;4.23;;;16.20;99.90;;;;;;5095487;28;20649;-71
2022/05/16 04:28:39;;;;;;;6.43;4.67;;;16.20;99.90;;;;;;5095204;28;20617;-71
2022/05/16 04:31:06;;;;;;;8.47;3.90;;;16.30;99.90;;;;;;5077243;28;20621;-74
2022/05/16 04:33:34;;;;;;;6.30;4.67;;;16.30;99.90;;;;;;5094326;28;20607;-71
2022/05/16 04:36:02;;;;;;;4.00;3.70;;;16.50;99.90;;;;;;5094543;28;20965;-71
2022/05/16 04:38:28;;;;;;;11.57;4.50;;;16.70;99.90;;;;;;5095006;28;21035;-71
2022/05/16 04:43:42;;;;;;;5.17;3.83;;;16.90;99.90;;;;;;5095266;28;20548;-71
2022/05/16 04:46:08;;;;;;;3.90;3.50;;;17.10;99.90;;;;;;5077248;28;20621;-72
2022/05/16 04:48:35;;;;;;;6.50;4.40;;;17.20;99.90;;;;;;5095064;28;20772;-72
2022/05/16 04:51:02;;;;;;;4.83;3.67;;;17.20;99.90;;;;;;5095582;28;20625;-72
2022/05/16 04:53:29;;;;;;;14.43;5.40;;;17.20;99.90;;;;;;5095186;28;20625;-72
2022/05/16 04:55:55;;;;;;;4.60;3.60;;;17.20;99.90;;;;;;5076733;28;21136;-72
2022/05/16 04:58:22;;;;;;;10.93;4.67;;;17.20;99.90;;;;;;5095055;28;20624;-72
2022/05/16 05:00:49;;;;;;;7.10;4.83;;;17.20;99.90;;;;;;5094218;28;20657;-72
2022/05/16 05:03:15;;;;;;;6.87;4.07;;;17.30;99.90;;;;;;5094867;28;20613;-72
2022/05/16 05:05:42;;;;;;;12.80;4.63;;;17.30;99.90;;;;;;5094261;28;20623;-72
2022/05/16 05:08:09;;;;;;;9.40;4.63;;;17.50;99.90;;;;;;5094978;28;20656;-72
2022/05/16 05:16:15;;;;;;;9.20;4.60;;;17.70;99.90;;;;;;5094732;28;20605;-72
2022/05/16 05:18:43;;;;;;;6.13;4.13;;;17.80;99.90;;;;;;5094642;28;20582;-72
2022/05/16 05:21:10;;;;;;;8.73;4.13;;;17.90;99.90;;;;;;5094842;28;20666;-72
2022/05/16 05:23:39;;;;;;;7.47;4.10;;;18.00;99.90;;;;;;5094517;28;20594;-72
2022/05/16 05:26:07;;;;;;;11.17;5.80;;;18.00;99.90;;;;;;5094259;28;20670;-72
2022/05/16 05:28:34;;;;;;;19.83;5.10;;;17.90;99.90;;;;;;5076433;28;20702;-72
2022/05/16 05:31:01;;;;;;;7.10;4.03;;;17.90;99.90;;;;;;5093859;28;21207;-72
2022/05/16 05:33:28;;;;;;;17.73;5.63;;;17.80;99.90;;;;;;5075389;28;21177;-72
2022/05/16 05:35:54;;;;;;;12.73;5.43;;;17.60;99.90;;;;;;5094158;28;20609;-73
2022/05/16 05:38:21;;;;;;;4.60;4.20;;;17.80;99.90;;;;;;5093732;28;20670;-72
2022/05/16 05:40:50;;;;;;;5.40;4.80;;;18.10;99.90;;;;;;5093898;28;20657;-72
2022/05/16 05:43:16;;;;;;;11.67;4.60;;;18.10;99.90;;;;;;5093424;28;20640;-72
2022/05/16 05:45:44;;;;;;;11.20;4.85;;;18.30;99.90;;;;;;5094160;28;20674;-72
2022/05/16 05:48:10;;;;;;;13.27;4.80;;;18.50;99.90;;;;;;5094079;28;20207;-74
2022/05/16 05:50:37;;;;;;;9.10;4.43;;;18.90;99.90;;;;;;5059461;28;20678;-77
2022/05/16 05:53:03;;;;;;;5.10;4.30;;;18.80;99.90;;;;;;5059501;28;20622;-74
2022/05/16 05:55:30;;;;;;;5.23;4.73;;;18.80;99.90;;;;;;5094537;28;20973;-72
2022/05/16 05:57:57;;;;;;;4.77;4.37;;;18.90;99.90;;;;;;5076408;28;20703;-71
2022/05/16 06:00:24;;;;;;;6.07;4.67;;;18.80;99.90;;;;;;5095008;28;20706;-71
2022/05/16 06:02:50;;;;;;;6.30;4.80;;;18.80;99.90;;;;;;5093375;28;20629;-71
2022/05/16 06:05:20;;;;;;;4.57;4.00;;;18.80;99.90;;;;;;5093287;28;20675;-72
2022/05/16 06:07:46;;;;;;;13.47;6.00;;;18.90;99.90;;;;;;5093280;28;20651;-71
2022/05/16 06:10:16;;;;;;;6.33;5.10;;;19.00;99.90;;;;;;5093222;28;20611;-72
2022/05/16 06:12:43;;;;;;;5.87;4.23;;;18.90;99.90;;;;;;5092946;28;20630;-71
2022/05/16 06:15:11;;;;;;;5.60;5.10;;;19.10;99.90;;;;;;5093077;28;20609;-71
2022/05/16 06:17:38;;;;;;;5.47;4.77;;;19.10;99.90;;;;;;5093313;28;20666;-71
2022/05/16 06:20:07;;;;;;;6.30;5.70;;;18.80;99.90;;;;;;5092920;28;20632;-70
2022/05/16 06:22:34;;;;;;;9.37;5.33;;;18.70;99.90;;;;;;5093225;28;20604;-70
2022/05/16 06:27:48;;;;;;;6.03;5.37;;;18.80;99.90;;;;;;5093553;28;20569;-71
2022/05/16 06:30:15;;;;;;;9.80;5.77;;;18.80;99.90;;;;;;5099357;28;20612;-71
2022/05/16 06:32:42;;;;;;;5.77;5.00;;;18.80;99.90;;;;;;5099626;28;20617;-70
2022/05/16 06:35:09;;;;;;;7.20;5.20;;;18.90;99.90;;;;;;5099960;28;20965;-70
2022/05/16 06:37:35;;;;;;;10.50;5.40;;;19.00;99.90;;;;;;5081594;28;20613;-71
2022/05/16 06:40:02;;;;;;;9.03;5.70;;;19.00;99.90;;;;;;5099707;28;20593;-70
2022/05/16 06:42:28;;;;;;;9.73;5.70;;;19.20;99.90;;;;;;5099865;28;20609;-71
2022/05/16 06:44:55;;;;;;;12.97;6.13;;;19.30;99.90;;;;;;5099593;28;20601;-71
2022/05/16 06:47:23;;;;;;;6.23;4.47;;;19.60;99.90;;;;;;5099567;28;20616;-71
2022/05/16 06:49:49;;;;;;;5.93;4.83;;;19.90;99.90;;;;;;5082543;28;21016;-71
2022/05/16 06:52:16;;;;;;;5.33;4.87;;;20.10;99.90;;;;;;5099796;28;20986;-71
2022/05/16 06:54:44;;;;;;;7.30;4.70;;;20.20;99.90;;;;;;5100051;28;21237;-71
2022/05/16 06:57:11;;;;;;;5.10;4.50;;;20.20;99.90;;;;;;5081804;28;20739;-71
2022/05/16 06:59:38;;;;;;;5.90;5.30;;;20.40;99.90;;;;;;5099436;28;20617;-71
2022/05/16 07:02:06;;;;;;;6.00;5.10;;;20.70;99.90;;;;;;5099919;28;20660;-76
2022/05/16 07:04:36;;;;;;;6.77;4.83;;;20.90;99.90;;;;;;5100300;28;20613;-71
2022/05/16 07:07:08;;;;;;;6.03;5.13;;;21.10;99.90;;;;;;5100048;28;20648;-71
2022/05/16 07:09:37;;;;;;;7.63;5.00;;;21.30;99.90;;;;;;5100329;28;20573;-71
2022/05/16 07:12:04;;;;;;;6.20;4.73;;;21.60;99.90;;;;;;5099588;28;20697;-71
2022/05/16 07:14:31;;;;;;;7.47;5.23;;;21.70;99.90;;;;;;5081924;28;21217;-71
2022/05/16 07:16:57;;;;;;;7.87;4.57;;;21.90;99.90;;;;;;5099907;28;20597;-70
2022/05/16 07:19:28;;;;;;;5.70;4.30;;;22.00;99.90;;;;;;5099331;28;20678;-71
2022/05/16 07:21:55;;;;;;;4.93;4.50;;;22.10;99.90;;;;;;5099766;28;20624;-71
2022/05/16 07:24:22;;;;;;;4.53;4.13;;;22.30;99.90;;;;;;5099364;28;20601;-71
2022/05/16 07:29:33;;;;;;;6.60;4.23;;;22.50;99.90;;;;;;5099540;28;20574;-71
2022/05/16 07:32:00;;;;;;;5.10;4.70;;;22.60;99.90;;;;;;5099696;28;20613;-71
2022/05/16 07:34:26;;;;;;;4.47;4.17;;;22.70;99.90;;;;;;5098996;28;20621;-72
2022/05/16 07:36:52;;;;;;;5.70;4.13;;;22.60;99.90;;;;;;5099538;28;20604;-71
2022/05/16 07:39:19;;;;;;;6.90;5.10;;;22.40;99.90;;;;;;5099485;28;20613;-70
2022/05/16 07:41:46;;;;;;;6.30;4.70;;;22.20;99.90;;;;;;5095221;28;20653;-71
2022/05/16 07:44:12;;;;;;;6.00;4.70;;;22.20;99.90;;;;;;5077532;28;21201;-70
2022/05/16 07:46:38;;;;;;;7.23;4.03;;;22.20;99.90;;;;;;5095405;28;20701;-71
2022/05/16 07:49:05;;;;;;;5.87;4.13;;;22.30;99.90;;;;;;5095780;28;20597;-71
2022/05/16 07:51:32;;;;;;;4.50;4.10;;;22.10;99.90;;;;;;5095870;28;20616;-71
2022/05/16 07:53:58;;;;;;;6.07;5.27;;;22.20;99.90;;;;;;5095308;28;21159;-72
2022/05/16 07:56:24;;;;;;;11.17;4.13;;;22.40;99.90;;;;;;5096109;28;20605;-72
2022/05/16 07:58:51;;;;;;;5.00;3.70;;;22.40;99.90;;;;;;5095814;28;20601;-71
2022/05/16 08:01:17;;;;;;;5.20;3.93;;;22.50;99.90;;;;;;5096012;28;20653;-71
2022/05/16 08:03:43;;;;;;;12.17;5.07;;;22.80;99.90;;;;;;5095539;28;20705;-73
2022/05/16 08:06:10;;;;;;;7.57;3.50;;;22.60;99.90;;;;;;5095432;28;20633;-71
2022/05/16 08:11:21;;;;;;;5.40;3.47;;;22.60;99.90;;;;;;5095509;28;20577;-71
2022/05/16 08:13:48;;;;;;;5.27;4.50;;;22.60;99.90;;;;;;5094740;28;20617;-71
2022/05/16 08:16:14;;;;;;;4.37;3.97;;;22.50;99.90;;;;;;5095393;28;20676;-71
2022/05/16 08:18:42;;;;;;;4.83;4.20;;;22.40;99.90;;;;;;5095364;28;20639;-71
2022/05/16 08:21:10;;;;;;;10.90;4.60;;;22.60;99.90;;;;;;5095563;28;20660;-71
2022/05/16 08:23:38;;;;;;;5.63;4.37;;;22.50;99.90;;;;;;5094946;28;20610;-71
2022/05/16 08:26:04;;;;;;;10.73;4.20;;;22.90;99.90;;;;;;5094954;28;20598;-71
2022/05/16 08:28:32;;;;;;;5.17;4.60;;;23.10;99.90;;;;;;5094970;28;20961;-70
2022/05/16 08:30:58;;;;;;;6.90;4.23;;;23.30;99.90;;;;;;5094753;28;20621;-70
2022/05/16 08:33:25;;;;;;;5.93;4.27;;;23.30;99.90;;;;;;5094606;28;20632;-70
2022/05/16 08:41:33;;;;;;;8.43;4.20;;;23.80;99.90;;;;;;5094609;28;20690;-70
2022/05/16 08:44:14;;;;;;;16.00;4.33;;;23.90;99.90;;;;;;5094550;28;20617;-70
2022/05/16 08:47:21;;;;;;;5.20;3.57;;;24.10;99.90;;;;;;5094915;28;20758;-70
2022/05/16 08:49:57;;;;;;;9.47;4.90;;;23.90;99.90;;;;;;5095349;28;20584;-70
2022/05/16 08:52:38;;;;;;;6.30;3.80;;;24.00;99.90;;;;;;5099104;28;20747;-72
2022/05/16 08:55:19;;;;;;;5.40;3.90;;;24.10;99.90;;;;;;5099693;28;20677;-75
2022/05/16 08:57:49;;;;;;;13.50;4.20;;;24.30;99.90;;;;;;5076466;28;20686;-70
2022/05/16 09:00:27;;;;;;;6.23;5.00;;;24.60;99.90;;;;;;5094688;28;20582;-70
2022/05/16 09:02:54;;;;;;;10.07;4.10;;;24.50;99.90;;;;;;5094684;28;20569;-71
2022/05/16 09:05:32;;;;;;;18.07;4.37;;;24.60;99.90;;;;;;5094124;28;21013;-70
2022/05/16 09:07:59;;;;;;;5.70;3.60;;;24.60;99.90;;;;;;5075847;28;20648;-70
2022/05/16 09:10:57;;;;;;;5.63;4.33;;;24.70;99.90;;;;;;5094173;28;21237;-71
2022/05/16 09:14:04;;;;;;;7.10;4.30;;;24.60;99.90;;;;;;5093972;28;20636;-71
2022/05/16 09:17:07;;;;;;;6.73;3.87;;;24.30;99.90;;;;;;5094729;28;21171;-71
2022/05/16 09:20:01;;;;;;;5.87;3.53;;;24.30;99.90;;;;;;5095760;28;20672;-72
2022/05/16 09:22:38;;;;;;;8.07;4.13;;;24.30;99.90;;;;;;5076536;28;21211;-71
2022/05/16 09:25:13;;;;;;;9.97;4.23;;;24.60;99.90;;;;;;5094822;28;20667;-71
2022/05/16 09:30:28;;;;;;;5.50;4.20;;;24.70;99.90;;;;;;5094416;28;20906;-71
2022/05/16 09:33:20;;;;;;;9.97;4.63;;;24.60;99.90;;;;;;5094654;28;20609;-71
2022/05/16 09:35:54;;;;;;;8.23;4.07;;;24.70;99.90;;;;;;5083235;28;20749;-72
2022/05/16 09:38:22;;;;;;;6.73;3.20;;;24.60;99.90;;;;;;5094615;28;20581;-72
2022/05/16 09:41:03;;;;;;;3.80;3.07;;;24.90;99.90;;;;;;5093335;28;20617;-71
2022/05/16 09:44:02;;;;;;;4.17;3.07;;;24.80;99.90;;;;;;5093727;28;20624;-71
2022/05/16 09:46:43;;;;;;;4.87;3.40;;;24.70;99.90;;;;;;5094441;28;20589;-72
2022/05/16 09:49:11;;;;;;;4.00;3.40;;;24.80;99.90;;;;;;5093719;28;21018;-71
2022/05/16 09:51:44;;;;;;;6.17;3.53;;;24.80;99.90;;;;;;5093690;28;20621;-71
2022/05/16 09:54:31;;;;;;;8.00;3.17;;;25.00;99.90;;;;;;5093327;28;20624;-71
2022/05/16 09:57:03;;;;;;;8.87;3.10;;;24.90;99.90;;;;;;5094032;28;21074;-71
2022/05/16 09:59:42;;;;;;;7.63;3.70;;;25.00;99.90;;;;;;5093740;28;20580;-71
2022/05/16 10:02:28;;;;;;;7.13;3.57;;;24.70;99.90;;;;;;5098873;28;20659;-73
2022/05/16 10:05:21;;;;;;;3.70;2.57;;;24.70;99.90;;;;;;5102195;28;20601;-73
2022/05/16 10:07:51;;;;;;;5.73;3.47;;;24.60;99.90;;;;;;5103456;28;20652;-72
2022/05/16 10:10:23;;;;;;;17.90;3.20;;;24.70;99.90;;;;;;5105122;28;20581;-72
2022/05/16 10:12:52;;;;;;;8.37;2.73;;;24.60;99.90;;;;;;5104554;28;20611;-72
2022/05/16 10:15:19;;;;;;;13.23;4.03;;;24.70;99.90;;;;;;5087245;28;20730;-72
2022/05/16 10:17:48;;;;;;;10.33;3.37;;;24.80;99.90;;;;;;5104927;28;20675;-72
2022/05/16 10:20:21;;;;;;;7.27;3.43;;;24.20;99.90;;;;;;5101618;28;20601;-72
2022/05/16 10:22:50;;;;;;;8.70;3.23;;;23.90;99.90;;;;;;5101110;28;21238;-72
2022/05/16 10:25:21;;;;;;;9.07;3.87;;;23.70;99.90;;;;;;5104232;28;20651;-73
2022/05/16 10:27:51;;;;;;;3.00;2.73;;;23.40;99.90;;;;;;5101452;28;21189;-72
2022/05/16 10:30:24;;;;;;;12.13;3.50;;;23.40;99.90;;;;;;5103131;28;20609;-72
2022/05/16 10:35:52;;;;;;;8.70;3.17;;;23.10;99.90;;;;;;5102092;28;20605;-72
2022/05/16 10:38:52;;;;;;;3.37;2.90;;;22.90;99.90;;;;;;5104133;28;20966;-72
2022/05/16 10:41:27;;;;;;;10.77;3.13;;;22.90;99.90;;;;;;5103980;28;20653;-72
2022/05/16 10:44:11;;;;;;;5.37;3.00;;;22.80;99.90;;;;;;5070406;28;20767;-72
2022/05/16 10:46:42;;;;;;;6.30;2.53;;;22.60;99.90;;;;;;5103446;28;21176;-72
2022/05/16 10:49:19;;;;;;;4.77;3.30;;;22.40;99.90;;;;;;5099272;28;20932;-74
2022/05/16 10:51:57;;;;;;;4.87;2.60;;;22.10;99.90;;;;;;5093586;28;20615;-74
2022/05/16 10:54:25;;;;;;;6.00;3.67;;;21.90;99.90;;;;;;5093221;28;20593;-74
2022/05/16 10:57:00;;;;;;;4.53;2.63;;;21.90;99.90;;;;;;5092833;28;20981;-74
2022/05/16 10:59:46;;;;;;;3.80;2.70;;;21.70;99.90;;;;;;5092689;28;21155;-73
2022/05/16 11:02:21;;;;;;;5.57;3.27;;;21.40;99.90;;;;;;5074585;28;20997;-76
2022/05/16 11:05:17;;;;;;;8.10;3.30;;;20.80;99.90;;;;;;5092267;28;20587;-76
2022/05/16 11:08:01;;;;;;;14.03;3.60;;;20.50;99.90;;;;;;5093114;28;20711;-76
2022/05/16 11:10:32;;;;;;;3.90;2.30;;;20.30;99.90;;;;;;5093343;28;20577;-71
2022/05/16 11:13:28;;;;;;;4.20;2.63;;;20.00;99.90;;;;;;5093150;28;20584;-71
2022/05/16 11:15:59;;;;;;;4.07;2.70;;;19.80;99.90;;;;;;5096033;28;21112;-71
2022/05/16 11:18:41;;;;;;;6.13;2.80;;;19.60;99.90;;;;;;5096905;28;20993;-71
2022/05/16 11:21:46;;;;;;;5.17;3.43;;;19.60;99.90;;;;;;5096797;28;20619;-71
2022/05/16 11:24:42;;;;;;;6.00;2.70;;;19.40;99.90;;;;;;5096279;28;21181;-72
2022/05/16 11:27:27;;;;;;;11.77;3.80;;;19.10;99.90;;;;;;5096918;28;20585;-72
2022/05/16 11:29:56;;;;;;;7.00;3.50;;;18.90;99.90;;;;;;5096902;28;20717;-71
2022/05/16 11:32:46;;;;;;;7.23;3.90;;;18.80;99.90;;;;;;5096587;28;20609;-71
2022/05/16 11:35:46;;;;;;;9.90;3.10;;;18.60;99.90;;;;;;5096520;28;20979;-74
2022/05/16 11:38:33;;;;;;;10.67;3.47;;;18.40;99.90;;;;;;5096646;28;20579;-72
2022/05/16 11:41:15;;;;;;;8.43;4.43;;;18.30;99.90;;;;;;5096733;28;20969;-72
2022/05/16 11:43:47;;;;;;;7.23;4.20;;;18.30;99.90;;;;;;5097418;28;20581;-71
2022/05/16 11:46:58;;;;;;;4.70;3.90;;;18.50;99.90;;;;;;5096613;28;21171;-71
2022/05/16 11:49:51;;;;;;;7.37;4.33;;;18.40;99.90;;;;;;5058456;28;20613;-71
2022/05/16 11:52:36;;;;;;;8.07;3.50;;;18.70;99.90;;;;;;5096582;28;20570;-71
2022/05/16 12:00:31;;;;;;;6.20;4.77;;;18.70;99.90;;;;;;5096664;28;20573;-71
2022/05/16 12:00:58;;;;;;;7.40;4.00;;;18.80;99.90;;;;;;5097395;28;20577;-71
2022/05/16 12:03:40;;;;;;;6.03;4.27;;;18.80;99.90;;;;;;5097510;28;20632;-72
2022/05/16 12:06:37;;;;;;;4.10;3.73;;;18.80;99.90;;;;;;5096960;28;21195;-72
2022/05/16 12:09:23;;;;;;;5.60;4.60;;;18.90;99.90;;;;;;5076684;28;20625;-72
2022/05/16 12:12:07;;;;;;;4.23;3.23;;;18.80;99.90;;;;;;5096514;28;20593;-71
2022/05/16 12:14:36;;;;;;;9.27;3.70;;;18.90;99.90;;;;;;5095869;28;20576;-73
2022/05/16 12:17:18;;;;;;;5.73;3.17;;;19.10;99.90;;;;;;5097792;28;20601;-73
2022/05/16 12:19:48;;;;;;;3.30;3.00;;;19.10;99.90;;;;;;5097045;28;20569;-73
2022/05/16 12:22:40;;;;;;;5.60;3.00;;;19.40;99.90;;;;;;5097670;28;20653;-71
2022/05/16 12:25:10;;;;;;;4.50;2.93;;;19.40;99.90;;;;;;5096187;28;21004;-71
2022/05/16 12:27:43;;;;;;;4.00;3.17;;;19.50;99.90;;;;;;5096754;28;20613;-71
2022/05/16 12:30:22;;;;;;;3.70;2.97;;;19.70;99.90;;;;;;5096220;28;20577;-70
2022/05/16 12:32:55;;;;;;;3.20;2.70;;;19.70;99.90;;;;;;5095125;28;20624;-71
2022/05/16 12:35:27;;;;;;;5.67;2.53;;;19.90;99.90;;;;;;5095772;28;20609;-71
2022/05/16 12:37:55;;;;;;;6.47;3.00;;;20.00;99.90;;;;;;5095501;28;20624;-75
2022/05/16 12:40:52;;;;;;;3.27;2.70;;;19.90;99.90;;;;;;5095865;28;20605;-73
2022/05/16 12:43:38;;;;;;;6.30;2.90;;;19.80;99.90;;;;;;5096678;28;20625;-73
2022/05/16 12:46:42;;;;;;;2.80;2.50;;;20.40;99.90;;;;;;5096128;28;20637;-74
2022/05/16 12:49:11;;;;;;;3.93;2.17;;;20.50;99.90;;;;;;5094283;28;20618;-71
2022/05/16 12:52:19;;;;;;;3.57;2.40;;;20.30;99.90;;;;;;5094350;28;20621;-72
2022/05/16 12:55:01;;;;;;;4.30;2.20;;;20.50;99.90;;;;;;4992656;28;20633;-71
2022/05/16 12:57:30;;;;;;;2.73;2.37;;;21.00;99.90;;;;;;4993481;28;20946;-72
2022/05/16 13:08:03;;;;;;;8.23;2.37;;;22.10;99.90;;;;;;4936230;29;21017;-72
2022/05/16 13:10:43;;;;;;;3.37;1.83;;;23.20;99.90;;;;;;4980858;28;21298;-71
2022/05/16 13:13:36;;;;;;;3.53;1.90;;;22.90;99.90;;;;;;5058128;28;20972;-71
2022/05/16 13:16:20;;;;;;;4.03;2.00;;;23.70;99.90;;;;;;5073850;28;20579;-72
2022/05/16 13:19:00;;;;;;;2.80;1.93;;;23.10;99.90;;;;;;5073662;28;20953;-71
2022/05/16 13:22:01;;;;;;;4.30;1.80;;;23.40;99.90;;;;;;5073794;28;20573;-71
2022/05/16 13:24:27;;;;;;;3.73;1.87;;;23.10;99.90;;;;;;5073832;28;20570;-72
2022/05/16 13:29:46;;;;;;;3.97;2.10;;;21.90;99.90;;;;;;5073288;28;21063;-71
2022/05/16 13:32:30;;;;;;;1.80;1.67;;;22.30;99.90;;;;;;5073551;28;21178;-71
2022/05/16 13:34:59;;;;;;;5.90;2.23;;;22.30;99.90;;;;;;5073239;28;20625;-72
2022/05/16 13:37:32;;;;;;;2.73;2.10;;;22.70;99.90;;;;;;5073107;28;20614;-73
2022/05/16 13:40:24;;;;;;;4.97;2.60;;;23.70;99.90;;;;;;5072998;28;20570;-72
2022/05/16 13:42:54;;;;;;;2.50;1.40;;;23.30;99.90;;;;;;5073177;28;20649;-72
2022/05/16 13:45:24;;;;;;;5.60;1.93;;;22.50;99.90;;;;;;5073035;28;20972;-73
2022/05/16 13:47:51;;;;;;;12.53;2.53;;;22.50;99.90;;;;;;5073820;28;20618;-79
2022/05/16 13:50:24;;;;;;;1.50;1.40;;;23.10;99.90;;;;;;5074048;28;20613;-78
2022/05/16 13:52:51;;;;;;;3.93;1.93;;;23.80;99.90;;;;;;5074467;28;20583;-79
2022/05/16 13:55:19;;;;;;;4.60;2.00;;;25.50;99.90;;;;;;5072622;28;21184;-77
2022/05/16 13:57:46;;;;;;;3.77;2.13;;;24.90;99.90;;;;;;5073625;28;20614;-77
2022/05/16 14:00:22;;;;;;;4.50;2.20;;;23.90;99.90;;;;;;5074165;28;20939;-77